sensor_id;sensor_type;location;lat;lon;timestamp;P1;durP1;ratioP1;P2;durP2;ratioP2
31716;SDS011;18301;51.076;17.046;2023-05-01T00:02:21;34.97;;;17.08;;
31716;SDS011;18301;51.076;17.046;2023-05-01T00:07:23;28.17;;;15.00;;
31716;SDS011;18301;51.076;17.046;2023-05-01T00:12:25;30.77;;;16.80;;
31716;SDS011;18301;51.076;17.046;2023-05-01T00:17:27;31.23;;;16.23;;
31716;SDS011;18301;51.076;17.046;2023-05-01T00:22:28;29.75;;;15.73;;
31716;SDS011;18301;51.076;17.046;2023-05-01T00:27:30;31.52;;;15.25;;
31716;SDS011;18301;51.076;17.046;2023-05-01T00:32:32;28.63;;;15.32;;
31716;SDS011;18301;51.076;17.046;2023-05-01T00:37:34;31.00;;;14.32;;
31716;SDS011;18301;51.076;17.046;2023-05-01T00:42:36;30.05;;;15.25;;
31716;SDS011;18301;51.076;17.046;2023-05-01T00:47:39;31.50;;;15.85;;
31716;SDS011;18301;51.076;17.046;2023-05-01T00:52:41;29.58;;;15.25;;
31716;SDS011;18301;51.076;17.046;2023-05-01T00:57:42;29.52;;;14.35;;
31716;SDS011;18301;51.076;17.046;2023-05-01T01:02:44;28.33;;;15.18;;
31716;SDS011;18301;51.076;17.046;2023-05-01T01:07:48;28.90;;;14.82;;
31716;SDS011;18301;51.076;17.046;2023-05-01T01:18:23;27.98;;;14.32;;
31716;SDS011;18301;51.076;17.046;2023-05-01T01:23:35;28.17;;;15.38;;
31716;SDS011;18301;51.076;17.046;2023-05-01T01:34:18;28.65;;;14.88;;
31716;SDS011;18301;51.076;17.046;2023-05-01T01:39:28;30.27;;;15.02;;
31716;SDS011;18301;51.076;17.046;2023-05-01T01:44:40;26.77;;;14.85;;
31716;SDS011;18301;51.076;17.046;2023-05-01T01:49:48;24.65;;;14.27;;
31716;SDS011;18301;51.076;17.046;2023-05-01T01:54:53;28.42;;;14.77;;
31716;SDS011;18301;51.076;17.046;2023-05-01T01:59:58;24.80;;;14.27;;
31716;SDS011;18301;51.076;17.046;2023-05-01T02:05:00;26.67;;;14.00;;
31716;SDS011;18301;51.076;17.046;2023-05-01T02:10:03;26.60;;;14.85;;
31716;SDS011;18301;51.076;17.046;2023-05-01T02:15:06;24.92;;;14.18;;
31716;SDS011;18301;51.076;17.046;2023-05-01T02:20:10;25.90;;;14.48;;
31716;SDS011;18301;51.076;17.046;2023-05-01T02:25:13;32.03;;;16.10;;
31716;SDS011;18301;51.076;17.046;2023-05-01T02:30:15;31.60;;;16.55;;
31716;SDS011;18301;51.076;17.046;2023-05-01T02:35:18;27.48;;;14.98;;
31716;SDS011;18301;51.076;17.046;2023-05-01T02:40:20;26.92;;;15.00;;
31716;SDS011;18301;51.076;17.046;2023-05-01T02:45:22;26.42;;;14.75;;
31716;SDS011;18301;51.076;17.046;2023-05-01T02:50:25;27.58;;;13.73;;
31716;SDS011;18301;51.076;17.046;2023-05-01T02:55:27;25.98;;;14.98;;
31716;SDS011;18301;51.076;17.046;2023-05-01T03:00:29;26.83;;;14.65;;
31716;SDS011;18301;51.076;17.046;2023-05-01T03:05:30;29.77;;;15.77;;
31716;SDS011;18301;51.076;17.046;2023-05-01T03:10:32;34.97;;;16.95;;
31716;SDS011;18301;51.076;17.046;2023-05-01T03:15:34;32.05;;;15.77;;
31716;SDS011;18301;51.076;17.046;2023-05-01T03:20:36;31.63;;;16.90;;
31716;SDS011;18301;51.076;17.046;2023-05-01T03:25:37;33.40;;;17.63;;
31716;SDS011;18301;51.076;17.046;2023-05-01T03:30:39;40.20;;;19.23;;
31716;SDS011;18301;51.076;17.046;2023-05-01T03:35:40;40.42;;;19.13;;
31716;SDS011;18301;51.076;17.046;2023-05-01T03:40:43;39.90;;;19.30;;
31716;SDS011;18301;51.076;17.046;2023-05-01T03:45:44;37.65;;;18.67;;
31716;SDS011;18301;51.076;17.046;2023-05-01T03:50:46;37.53;;;18.20;;
31716;SDS011;18301;51.076;17.046;2023-05-01T03:55:47;39.55;;;19.15;;
31716;SDS011;18301;51.076;17.046;2023-05-01T04:00:49;35.47;;;17.80;;
31716;SDS011;18301;51.076;17.046;2023-05-01T04:05:51;34.05;;;17.15;;
31716;SDS011;18301;51.076;17.046;2023-05-01T04:10:53;34.90;;;17.00;;
31716;SDS011;18301;51.076;17.046;2023-05-01T04:15:54;35.22;;;16.15;;
31716;SDS011;18301;51.076;17.046;2023-05-01T04:20:58;33.60;;;16.05;;
31716;SDS011;18301;51.076;17.046;2023-05-01T04:25:59;30.50;;;15.40;;
31716;SDS011;18301;51.076;17.046;2023-05-01T04:31:01;31.38;;;16.33;;
31716;SDS011;18301;51.076;17.046;2023-05-01T04:36:02;33.15;;;17.75;;
31716;SDS011;18301;51.076;17.046;2023-05-01T04:41:04;37.05;;;18.70;;
31716;SDS011;18301;51.076;17.046;2023-05-01T04:46:06;38.70;;;18.30;;
31716;SDS011;18301;51.076;17.046;2023-05-01T04:51:07;33.58;;;18.23;;
31716;SDS011;18301;51.076;17.046;2023-05-01T04:56:09;35.28;;;17.83;;
31716;SDS011;18301;51.076;17.046;2023-05-01T05:01:10;28.80;;;16.48;;
31716;SDS011;18301;51.076;17.046;2023-05-01T05:06:12;27.20;;;14.88;;
31716;SDS011;18301;51.076;17.046;2023-05-01T05:11:13;25.95;;;15.13;;
31716;SDS011;18301;51.076;17.046;2023-05-01T05:16:15;24.15;;;14.27;;
31716;SDS011;18301;51.076;17.046;2023-05-01T05:21:17;26.48;;;15.48;;
31716;SDS011;18301;51.076;17.046;2023-05-01T05:26:18;24.90;;;14.70;;
31716;SDS011;18301;51.076;17.046;2023-05-01T05:31:20;25.00;;;14.52;;
31716;SDS011;18301;51.076;17.046;2023-05-01T05:36:21;22.58;;;13.45;;
31716;SDS011;18301;51.076;17.046;2023-05-01T05:41:23;23.35;;;13.93;;
31716;SDS011;18301;51.076;17.046;2023-05-01T05:46:24;21.33;;;13.38;;
31716;SDS011;18301;51.076;17.046;2023-05-01T05:51:26;21.38;;;12.82;;
31716;SDS011;18301;51.076;17.046;2023-05-01T05:56:28;23.20;;;13.18;;
31716;SDS011;18301;51.076;17.046;2023-05-01T06:01:29;25.42;;;13.05;;
31716;SDS011;18301;51.076;17.046;2023-05-01T06:06:31;25.67;;;12.63;;
31716;SDS011;18301;51.076;17.046;2023-05-01T06:11:33;22.08;;;11.88;;
31716;SDS011;18301;51.076;17.046;2023-05-01T06:16:35;20.92;;;11.75;;
31716;SDS011;18301;51.076;17.046;2023-05-01T06:21:38;18.98;;;10.63;;
31716;SDS011;18301;51.076;17.046;2023-05-01T06:26:39;20.33;;;10.50;;
31716;SDS011;18301;51.076;17.046;2023-05-01T06:31:41;18.05;;;9.40;;
31716;SDS011;18301;51.076;17.046;2023-05-01T06:36:42;17.63;;;9.32;;
31716;SDS011;18301;51.076;17.046;2023-05-01T06:41:44;16.92;;;9.13;;
31716;SDS011;18301;51.076;17.046;2023-05-01T06:46:47;19.20;;;8.77;;
31716;SDS011;18301;51.076;17.046;2023-05-01T06:51:49;15.00;;;8.85;;
31716;SDS011;18301;51.076;17.046;2023-05-01T06:56:51;16.55;;;8.95;;
31716;SDS011;18301;51.076;17.046;2023-05-01T07:01:53;17.25;;;9.85;;
31716;SDS011;18301;51.076;17.046;2023-05-01T07:06:55;16.13;;;8.55;;
31716;SDS011;18301;51.076;17.046;2023-05-01T07:11:57;13.05;;;7.63;;
31716;SDS011;18301;51.076;17.046;2023-05-01T07:16:58;12.95;;;7.50;;
31716;SDS011;18301;51.076;17.046;2023-05-01T07:22:00;18.08;;;7.72;;
31716;SDS011;18301;51.076;17.046;2023-05-01T07:27:03;16.77;;;8.35;;
31716;SDS011;18301;51.076;17.046;2023-05-01T07:32:04;14.80;;;7.68;;
31716;SDS011;18301;51.076;17.046;2023-05-01T07:37:07;15.40;;;8.10;;
31716;SDS011;18301;51.076;17.046;2023-05-01T07:42:08;18.58;;;7.60;;
31716;SDS011;18301;51.076;17.046;2023-05-01T07:47:10;13.43;;;7.72;;
31716;SDS011;18301;51.076;17.046;2023-05-01T07:52:11;11.60;;;6.60;;
31716;SDS011;18301;51.076;17.046;2023-05-01T07:57:13;13.63;;;6.93;;
31716;SDS011;18301;51.076;17.046;2023-05-01T08:02:15;12.93;;;6.68;;
31716;SDS011;18301;51.076;17.046;2023-05-01T08:07:17;12.23;;;6.05;;
31716;SDS011;18301;51.076;17.046;2023-05-01T08:12:19;11.38;;;5.15;;
31716;SDS011;18301;51.076;17.046;2023-05-01T08:17:20;11.32;;;5.65;;
31716;SDS011;18301;51.076;17.046;2023-05-01T08:22:22;9.52;;;4.90;;
31716;SDS011;18301;51.076;17.046;2023-05-01T08:27:24;8.35;;;5.22;;
31716;SDS011;18301;51.076;17.046;2023-05-01T08:32:26;8.68;;;5.03;;
31716;SDS011;18301;51.076;17.046;2023-05-01T08:37:28;11.73;;;5.00;;
31716;SDS011;18301;51.076;17.046;2023-05-01T08:42:29;9.95;;;4.70;;
31716;SDS011;18301;51.076;17.046;2023-05-01T08:47:33;11.10;;;6.10;;
31716;SDS011;18301;51.076;17.046;2023-05-01T08:52:41;13.23;;;7.15;;
31716;SDS011;18301;51.076;17.046;2023-05-01T08:57:44;11.88;;;5.72;;
31716;SDS011;18301;51.076;17.046;2023-05-01T09:02:49;9.32;;;6.07;;
31716;SDS011;18301;51.076;17.046;2023-05-01T09:07:52;11.00;;;5.80;;
31716;SDS011;18301;51.076;17.046;2023-05-01T09:12:55;10.00;;;5.30;;
31716;SDS011;18301;51.076;17.046;2023-05-01T09:18:00;11.65;;;5.82;;
31716;SDS011;18301;51.076;17.046;2023-05-01T09:23:04;11.75;;;5.32;;
31716;SDS011;18301;51.076;17.046;2023-05-01T09:28:06;9.00;;;5.15;;
31716;SDS011;18301;51.076;17.046;2023-05-01T09:38:17;10.05;;;5.40;;
31716;SDS011;18301;51.076;17.046;2023-05-01T09:43:27;10.32;;;5.63;;
31716;SDS011;18301;51.076;17.046;2023-05-01T09:48:30;10.43;;;5.63;;
31716;SDS011;18301;51.076;17.046;2023-05-01T09:53:36;11.52;;;6.30;;
31716;SDS011;18301;51.076;17.046;2023-05-01T09:58:38;13.48;;;6.70;;
31716;SDS011;18301;51.076;17.046;2023-05-01T10:03:41;11.43;;;6.85;;
31716;SDS011;18301;51.076;17.046;2023-05-01T10:08:44;15.43;;;7.38;;
31716;SDS011;18301;51.076;17.046;2023-05-01T10:14:08;11.45;;;6.35;;
31716;SDS011;18301;51.076;17.046;2023-05-01T10:19:10;11.95;;;6.70;;
31716;SDS011;18301;51.076;17.046;2023-05-01T10:24:12;12.70;;;5.97;;
31716;SDS011;18301;51.076;17.046;2023-05-01T10:29:17;14.23;;;6.70;;
31716;SDS011;18301;51.076;17.046;2023-05-01T10:34:20;12.13;;;5.97;;
31716;SDS011;18301;51.076;17.046;2023-05-01T10:39:37;8.50;;;4.80;;
31716;SDS011;18301;51.076;17.046;2023-05-01T10:44:39;12.20;;;5.60;;
31716;SDS011;18301;51.076;17.046;2023-05-01T10:50:01;10.50;;;5.07;;
31716;SDS011;18301;51.076;17.046;2023-05-01T11:00:32;9.23;;;5.03;;
31716;SDS011;18301;51.076;17.046;2023-05-01T11:21:38;11.57;;;5.30;;
31716;SDS011;18301;51.076;17.046;2023-05-01T11:26:41;9.00;;;4.90;;
31716;SDS011;18301;51.076;17.046;2023-05-01T11:31:43;10.85;;;5.70;;
31716;SDS011;18301;51.076;17.046;2023-05-01T11:36:49;9.95;;;5.38;;
31716;SDS011;18301;51.076;17.046;2023-05-01T11:42:04;15.90;;;8.80;;
31716;SDS011;18301;51.076;17.046;2023-05-01T11:47:10;11.65;;;5.88;;
31716;SDS011;18301;51.076;17.046;2023-05-01T11:52:11;10.25;;;5.30;;
31716;SDS011;18301;51.076;17.046;2023-05-01T11:57:12;8.77;;;4.97;;
31716;SDS011;18301;51.076;17.046;2023-05-01T12:02:20;9.27;;;4.03;;
31716;SDS011;18301;51.076;17.046;2023-05-01T12:07:22;7.23;;;4.27;;
31716;SDS011;18301;51.076;17.046;2023-05-01T12:12:24;9.88;;;5.07;;
31716;SDS011;18301;51.076;17.046;2023-05-01T12:17:25;11.25;;;5.13;;
31716;SDS011;18301;51.076;17.046;2023-05-01T12:22:28;7.20;;;4.07;;
31716;SDS011;18301;51.076;17.046;2023-05-01T12:27:30;8.30;;;4.82;;
31716;SDS011;18301;51.076;17.046;2023-05-01T12:32:33;10.57;;;5.43;;
31716;SDS011;18301;51.076;17.046;2023-05-01T12:37:34;9.10;;;5.50;;
31716;SDS011;18301;51.076;17.046;2023-05-01T12:42:36;10.27;;;6.00;;
31716;SDS011;18301;51.076;17.046;2023-05-01T12:47:37;9.75;;;5.32;;
31716;SDS011;18301;51.076;17.046;2023-05-01T12:52:39;12.50;;;6.13;;
31716;SDS011;18301;51.076;17.046;2023-05-01T12:57:51;8.48;;;5.18;;
31716;SDS011;18301;51.076;17.046;2023-05-01T13:02:53;8.82;;;5.38;;
31716;SDS011;18301;51.076;17.046;2023-05-01T13:07:55;9.48;;;5.78;;
31716;SDS011;18301;51.076;17.046;2023-05-01T13:12:58;10.25;;;6.43;;
31716;SDS011;18301;51.076;17.046;2023-05-01T13:18:03;10.05;;;4.88;;
31716;SDS011;18301;51.076;17.046;2023-05-01T13:23:09;13.10;;;7.25;;
31716;SDS011;18301;51.076;17.046;2023-05-01T13:28:16;10.63;;;5.60;;
31716;SDS011;18301;51.076;17.046;2023-05-01T13:33:19;10.63;;;5.82;;
31716;SDS011;18301;51.076;17.046;2023-05-01T13:38:21;14.43;;;7.88;;
31716;SDS011;18301;51.076;17.046;2023-05-01T13:43:25;11.10;;;6.22;;
31716;SDS011;18301;51.076;17.046;2023-05-01T13:48:26;11.95;;;6.38;;
31716;SDS011;18301;51.076;17.046;2023-05-01T13:53:30;12.60;;;6.47;;
31716;SDS011;18301;51.076;17.046;2023-05-01T13:58:32;11.23;;;5.55;;
31716;SDS011;18301;51.076;17.046;2023-05-01T14:03:37;11.40;;;6.20;;
31716;SDS011;18301;51.076;17.046;2023-05-01T14:08:41;8.65;;;4.88;;
31716;SDS011;18301;51.076;17.046;2023-05-01T14:13:44;7.50;;;4.93;;
31716;SDS011;18301;51.076;17.046;2023-05-01T14:18:46;7.82;;;4.35;;
31716;SDS011;18301;51.076;17.046;2023-05-01T14:23:49;8.93;;;5.28;;
31716;SDS011;18301;51.076;17.046;2023-05-01T14:28:53;9.73;;;4.68;;
31716;SDS011;18301;51.076;17.046;2023-05-01T14:33:55;10.63;;;5.43;;
31716;SDS011;18301;51.076;17.046;2023-05-01T14:39:01;8.77;;;4.55;;
31716;SDS011;18301;51.076;17.046;2023-05-01T14:44:04;8.23;;;4.32;;
31716;SDS011;18301;51.076;17.046;2023-05-01T14:49:06;9.10;;;4.43;;
31716;SDS011;18301;51.076;17.046;2023-05-01T14:54:10;6.82;;;4.38;;
31716;SDS011;18301;51.076;17.046;2023-05-01T14:59:14;8.68;;;4.30;;
31716;SDS011;18301;51.076;17.046;2023-05-01T15:04:16;6.80;;;3.88;;
31716;SDS011;18301;51.076;17.046;2023-05-01T15:09:18;4.78;;;3.28;;
31716;SDS011;18301;51.076;17.046;2023-05-01T15:14:19;8.68;;;4.10;;
31716;SDS011;18301;51.076;17.046;2023-05-01T15:19:21;5.03;;;3.33;;
31716;SDS011;18301;51.076;17.046;2023-05-01T15:24:23;6.25;;;4.00;;
31716;SDS011;18301;51.076;17.046;2023-05-01T15:29:24;5.85;;;3.13;;
31716;SDS011;18301;51.076;17.046;2023-05-01T15:34:25;10.07;;;5.45;;
31716;SDS011;18301;51.076;17.046;2023-05-01T15:39:27;6.05;;;3.83;;
31716;SDS011;18301;51.076;17.046;2023-05-01T15:44:29;5.93;;;3.72;;
31716;SDS011;18301;51.076;17.046;2023-05-01T15:49:31;7.07;;;3.97;;
31716;SDS011;18301;51.076;17.046;2023-05-01T15:54:33;6.75;;;4.18;;
31716;SDS011;18301;51.076;17.046;2023-05-01T15:59:37;5.47;;;3.53;;
31716;SDS011;18301;51.076;17.046;2023-05-01T16:04:39;4.10;;;3.03;;
31716;SDS011;18301;51.076;17.046;2023-05-01T16:09:41;5.57;;;3.35;;
31716;SDS011;18301;51.076;17.046;2023-05-01T16:14:42;5.65;;;3.35;;
31716;SDS011;18301;51.076;17.046;2023-05-01T16:19:44;5.55;;;3.08;;
31716;SDS011;18301;51.076;17.046;2023-05-01T16:24:46;4.97;;;2.63;;
31716;SDS011;18301;51.076;17.046;2023-05-01T16:29:48;4.93;;;3.10;;
31716;SDS011;18301;51.076;17.046;2023-05-01T16:34:50;7.88;;;3.30;;
31716;SDS011;18301;51.076;17.046;2023-05-01T16:39:51;6.40;;;3.47;;
31716;SDS011;18301;51.076;17.046;2023-05-01T16:44:53;5.07;;;3.17;;
31716;SDS011;18301;51.076;17.046;2023-05-01T16:49:57;6.30;;;3.25;;
31716;SDS011;18301;51.076;17.046;2023-05-01T16:55:00;5.32;;;3.45;;
31716;SDS011;18301;51.076;17.046;2023-05-01T17:00:02;7.45;;;4.20;;
31716;SDS011;18301;51.076;17.046;2023-05-01T17:05:05;4.78;;;3.67;;
31716;SDS011;18301;51.076;17.046;2023-05-01T17:10:07;6.90;;;4.40;;
31716;SDS011;18301;51.076;17.046;2023-05-01T17:15:09;10.23;;;4.93;;
31716;SDS011;18301;51.076;17.046;2023-05-01T17:20:10;8.77;;;4.65;;
31716;SDS011;18301;51.076;17.046;2023-05-01T17:25:12;7.45;;;4.85;;
31716;SDS011;18301;51.076;17.046;2023-05-01T17:30:14;9.35;;;4.97;;
31716;SDS011;18301;51.076;17.046;2023-05-01T17:35:18;7.63;;;4.95;;
31716;SDS011;18301;51.076;17.046;2023-05-01T17:40:19;10.25;;;5.95;;
31716;SDS011;18301;51.076;17.046;2023-05-01T17:45:21;10.27;;;5.53;;
31716;SDS011;18301;51.076;17.046;2023-05-01T17:50:22;8.23;;;4.68;;
31716;SDS011;18301;51.076;17.046;2023-05-01T17:55:25;8.43;;;5.90;;
31716;SDS011;18301;51.076;17.046;2023-05-01T18:00:28;10.45;;;6.32;;
31716;SDS011;18301;51.076;17.046;2023-05-01T18:05:31;11.50;;;6.13;;
31716;SDS011;18301;51.076;17.046;2023-05-01T18:10:32;10.52;;;6.15;;
31716;SDS011;18301;51.076;17.046;2023-05-01T18:15:34;9.80;;;5.88;;
31716;SDS011;18301;51.076;17.046;2023-05-01T18:20:35;9.55;;;6.07;;
31716;SDS011;18301;51.076;17.046;2023-05-01T18:25:37;10.73;;;6.32;;
31716;SDS011;18301;51.076;17.046;2023-05-01T18:30:39;11.10;;;6.90;;
31716;SDS011;18301;51.076;17.046;2023-05-01T18:35:41;11.20;;;7.00;;
31716;SDS011;18301;51.076;17.046;2023-05-01T18:40:43;10.77;;;7.22;;
31716;SDS011;18301;51.076;17.046;2023-05-01T18:45:44;12.18;;;7.43;;
31716;SDS011;18301;51.076;17.046;2023-05-01T18:50:46;13.40;;;7.25;;
31716;SDS011;18301;51.076;17.046;2023-05-01T18:56:07;12.50;;;7.85;;
31716;SDS011;18301;51.076;17.046;2023-05-01T19:01:09;11.07;;;7.85;;
31716;SDS011;18301;51.076;17.046;2023-05-01T19:06:12;18.65;;;8.65;;
31716;SDS011;18301;51.076;17.046;2023-05-01T19:11:14;11.35;;;7.43;;
31716;SDS011;18301;51.076;17.046;2023-05-01T19:16:15;12.75;;;7.90;;
31716;SDS011;18301;51.076;17.046;2023-05-01T19:21:17;11.98;;;7.88;;
31716;SDS011;18301;51.076;17.046;2023-05-01T19:26:19;11.65;;;8.27;;
31716;SDS011;18301;51.076;17.046;2023-05-01T19:31:21;11.38;;;7.82;;
31716;SDS011;18301;51.076;17.046;2023-05-01T19:36:22;13.32;;;7.70;;
31716;SDS011;18301;51.076;17.046;2023-05-01T19:41:24;9.60;;;6.68;;
31716;SDS011;18301;51.076;17.046;2023-05-01T19:46:25;14.20;;;7.78;;
31716;SDS011;18301;51.076;17.046;2023-05-01T19:51:27;12.38;;;6.90;;
31716;SDS011;18301;51.076;17.046;2023-05-01T19:56:29;9.57;;;5.85;;
31716;SDS011;18301;51.076;17.046;2023-05-01T20:01:30;8.65;;;5.45;;
31716;SDS011;18301;51.076;17.046;2023-05-01T20:06:32;7.95;;;5.55;;
31716;SDS011;18301;51.076;17.046;2023-05-01T20:11:34;10.52;;;4.93;;
31716;SDS011;18301;51.076;17.046;2023-05-01T20:16:35;7.43;;;5.32;;
31716;SDS011;18301;51.076;17.046;2023-05-01T20:21:37;8.95;;;5.88;;
31716;SDS011;18301;51.076;17.046;2023-05-01T20:26:38;8.48;;;5.43;;
31716;SDS011;18301;51.076;17.046;2023-05-01T20:31:40;6.70;;;4.78;;
31716;SDS011;18301;51.076;17.046;2023-05-01T20:36:41;6.15;;;4.40;;
31716;SDS011;18301;51.076;17.046;2023-05-01T20:41:43;7.80;;;5.15;;
31716;SDS011;18301;51.076;17.046;2023-05-01T20:46:45;6.78;;;5.15;;
31716;SDS011;18301;51.076;17.046;2023-05-01T20:51:47;8.70;;;5.07;;
31716;SDS011;18301;51.076;17.046;2023-05-01T20:56:49;8.00;;;5.43;;
31716;SDS011;18301;51.076;17.046;2023-05-01T21:01:50;7.20;;;5.47;;
31716;SDS011;18301;51.076;17.046;2023-05-01T21:06:52;9.15;;;5.55;;
31716;SDS011;18301;51.076;17.046;2023-05-01T21:11:54;8.73;;;5.53;;
31716;SDS011;18301;51.076;17.046;2023-05-01T21:16:55;9.07;;;5.70;;
31716;SDS011;18301;51.076;17.046;2023-05-01T21:21:57;7.40;;;5.65;;
31716;SDS011;18301;51.076;17.046;2023-05-01T21:26:59;8.45;;;5.47;;
31716;SDS011;18301;51.076;17.046;2023-05-01T21:32:01;9.50;;;5.97;;
31716;SDS011;18301;51.076;17.046;2023-05-01T21:37:05;8.68;;;5.93;;
31716;SDS011;18301;51.076;17.046;2023-05-01T21:42:08;9.77;;;7.20;;
31716;SDS011;18301;51.076;17.046;2023-05-01T21:47:09;8.82;;;6.25;;
31716;SDS011;18301;51.076;17.046;2023-05-01T21:52:12;8.13;;;6.40;;
31716;SDS011;18301;51.076;17.046;2023-05-01T21:57:14;8.77;;;6.78;;
31716;SDS011;18301;51.076;17.046;2023-05-01T22:02:16;10.10;;;6.97;;
31716;SDS011;18301;51.076;17.046;2023-05-01T22:07:18;10.75;;;7.55;;
31716;SDS011;18301;51.076;17.046;2023-05-01T22:12:20;10.18;;;7.30;;
31716;SDS011;18301;51.076;17.046;2023-05-01T22:17:21;9.93;;;7.07;;
31716;SDS011;18301;51.076;17.046;2023-05-01T22:22:26;10.57;;;7.18;;
31716;SDS011;18301;51.076;17.046;2023-05-01T22:27:27;8.55;;;6.75;;
31716;SDS011;18301;51.076;17.046;2023-05-01T22:32:29;10.27;;;6.80;;
31716;SDS011;18301;51.076;17.046;2023-05-01T22:37:30;10.93;;;7.22;;
31716;SDS011;18301;51.076;17.046;2023-05-01T22:42:32;10.93;;;7.57;;
31716;SDS011;18301;51.076;17.046;2023-05-01T22:47:33;10.70;;;6.93;;
31716;SDS011;18301;51.076;17.046;2023-05-01T22:52:35;9.50;;;6.68;;
31716;SDS011;18301;51.076;17.046;2023-05-01T22:57:36;9.85;;;6.93;;
31716;SDS011;18301;51.076;17.046;2023-05-01T23:02:38;9.45;;;7.13;;
31716;SDS011;18301;51.076;17.046;2023-05-01T23:07:40;9.00;;;6.88;;
31716;SDS011;18301;51.076;17.046;2023-05-01T23:12:41;10.18;;;6.78;;
31716;SDS011;18301;51.076;17.046;2023-05-01T23:17:44;8.48;;;6.95;;
31716;SDS011;18301;51.076;17.046;2023-05-01T23:22:46;11.48;;;8.25;;
31716;SDS011;18301;51.076;17.046;2023-05-01T23:27:49;12.25;;;7.88;;
31716;SDS011;18301;51.076;17.046;2023-05-01T23:32:52;12.63;;;8.25;;
31716;SDS011;18301;51.076;17.046;2023-05-01T23:37:58;10.73;;;8.27;;
31716;SDS011;18301;51.076;17.046;2023-05-01T23:42:59;11.85;;;8.40;;
31716;SDS011;18301;51.076;17.046;2023-05-01T23:48:01;12.55;;;8.73;;
31716;SDS011;18301;51.076;17.046;2023-05-01T23:53:04;13.02;;;8.45;;
31716;SDS011;18301;51.076;17.046;2023-05-01T23:58:07;11.23;;;8.20;;
